Capt. Henry Jackman — VCTV — position and weather

sailwx.info

Track history (hours):
 
Tides and Currents Weather Stations Pressure Air Temp Water Temp Dewpoint Dewpoint Depression Visibility Wind Speed Wind Dir Waves Ship Positions

Capt. Henry Jackman

Last reported at 2017-Dec-14 13:30 UTC. Time now 2017-Dec-15 08:11 UTC.
Position N 45°13' W 074°15'.

Length 223 m; draft 6.7 m.

Type: Cargo ship. MMSI: 316001803.

Date/timePositionNaut miles runAvg speedWind from/ knotsBaromVisibWave heightAir tempDewpointWater temp
2017-Dec-14 13:30N 45°13' W 074°15'5 9.6
2017-Dec-14 13:00N 45°14' W 074°08'4 7.9
2017-Dec-14 12:30N 45°13' W 074°03'4 7.4
2017-Dec-14 12:00N 45°15' W 073°58'4 7.1
2017-Dec-14 11:30N 45°18' W 073°56'0 0.3
2017-Dec-14 11:01N 45°18' W 073°56'0 0.9
2017-Dec-14 10:31N 45°19' W 073°55'0 0.8
2017-Dec-14 10:01N 45°19' W 073°55'0 0.8
2017-Dec-14 09:31N 45°19' W 073°55'0 0.0
2017-Dec-14 09:01N 45°19' W 073°55'1 1.1
2017-Dec-14 08:30N 45°20' W 073°55'1 3.0
2017-Dec-14 08:00N 45°21' W 073°53'4 8.3
2017-Dec-14 07:30N 45°23' W 073°48'4 8.0
2017-Dec-14 07:00N 45°25' W 073°43'3 5.3
2017-Dec-14 06:30N 45°24' W 073°39'3 6.3
2017-Dec-14 06:01N 45°24' W 073°35'1 1.1
2017-Dec-14 05:31N 45°24' W 073°34'0 0.8
2017-Dec-14 05:00N 45°24' W 073°33'1 1.2
2017-Dec-14 04:31N 45°24' W 073°34'1 1.2
2017-Dec-14 04:01N 45°24' W 073°35'1 1.5
2017-Dec-14 03:30N 45°24' W 073°36'0 0.0
2017-Dec-14 03:00N 45°24' W 073°36'0 0.0
2017-Dec-14 02:30N 45°24' W 073°36'0 0.0
2017-Dec-14 02:00N 45°24' W 073°36'0 0.0
2017-Dec-14 01:30N 45°24' W 073°36'0 0.0
2017-Dec-14 01:00N 45°24' W 073°36'0 0.0
2017-Dec-14 00:30N 45°24' W 073°36'0 0.0
2017-Dec-14 00:00N 45°24' W 073°36'0 0.0
2017-Dec-13 23:30N 45°24' W 073°36'0 0.0
2017-Dec-13 23:00N 45°24' W 073°36'0 0.0
2017-Dec-13 22:30N 45°24' W 073°36'0 0.0
2017-Dec-13 22:00N 45°24' W 073°36'0 0.0
2017-Dec-13 21:30N 45°24' W 073°36'0 0.0
2017-Dec-13 21:00N 45°24' W 073°36'0 0.0
2017-Dec-13 20:30N 45°24' W 073°36'0 0.0
2017-Dec-13 20:00N 45°24' W 073°36'0 0.0
2017-Dec-13 19:30N 45°24' W 073°36'0 0.0
2017-Dec-13 19:00N 45°24' W 073°36'0 0.0
2017-Dec-13 18:30N 45°24' W 073°36'0 0.0
2017-Dec-13 18:00N 45°24' W 073°36'0 0.0
2017-Dec-13 17:30N 45°24' W 073°36'0 0.0
2017-Dec-13 17:00N 45°24' W 073°36'0 0.0
2017-Dec-13 16:30N 45°24' W 073°36'0 0.0
2017-Dec-13 16:00N 45°24' W 073°36'0 0.0
2017-Dec-13 15:30N 45°24' W 073°36'0 0.0
2017-Dec-13 15:00N 45°24' W 073°36'0 0.0
2017-Dec-13 14:30N 45°24' W 073°36'0 0.0
2017-Dec-13 14:00N 45°24' W 073°36'0 0.0
2017-Dec-13 13:30N 45°24' W 073°36'0 0.0
2017-Dec-13 13:00N 45°24' W 073°36'0 0.0
2017-Dec-13 12:30N 45°24' W 073°36'0 0.0
2017-Dec-13 12:00N 45°24' W 073°36'0 0.0
2017-Dec-13 11:30N 45°24' W 073°36'0 0.0
2017-Dec-13 11:00N 45°24' W 073°36'0 0.0
2017-Dec-13 10:30N 45°24' W 073°36'0 0.0
2017-Dec-13 10:00N 45°24' W 073°36'0 0.0
2017-Dec-13 09:30N 45°24' W 073°36'0 0.0
2017-Dec-13 09:00N 45°24' W 073°36'0 0.0
2017-Dec-13 08:30N 45°24' W 073°36'0 0.0
2017-Dec-13 08:00N 45°24' W 073°36'1 1.4
2017-Dec-13 07:30N 45°24' W 073°37'1 2.8
2017-Dec-13 07:00N 45°24' W 073°39'2 4.9
2017-Dec-13 06:30N 45°25' W 073°42'4 7.1
2017-Dec-13 06:00N 45°24' W 073°47'3 6.6
2017-Dec-13 05:30N 45°22' W 073°50'3 6.5
2017-Dec-13 05:00N 45°20' W 073°54'1 2.0
2017-Dec-13 04:31N 45°19' W 073°55'0 0.1
2017-Dec-13 04:01N 45°19' W 073°55'0 0.6
2017-Dec-13 03:31N 45°19' W 073°55'1 1.1
2017-Dec-13 03:01N 45°18' W 073°56'1 1.1
2017-Dec-13 02:30N 45°18' W 073°56'2 4.3
2017-Dec-13 02:00N 45°16' W 073°57'4 8.6
2017-Dec-13 01:30N 45°13' W 074°02'510.2
2017-Dec-13 01:00N 45°14' W 074°10'323 7.5
2017-Dec-11 06:00N 42°18' W 080°24'   310 / 25990.0 2.2 1.0
Track history (hours):
 
Tides and Currents Weather Stations Pressure Air Temp Water Temp Dewpoint Dewpoint Depression Visibility Wind Speed Wind Dir Waves Ship Positions

Capt. Henry Jackman

Last reported at 2017-Dec-14 13:30 UTC. Time now 2017-Dec-15 08:11 UTC.
Position N 45°13' W 074°15'.

Length 223 m; draft 6.7 m.

Type: Cargo ship. MMSI: 316001803.

Date/timePositionNaut miles runAvg speedWind from/ knotsBaromVisibWave heightAir tempDewpointWater temp
2017-Dec-14 13:30N 45°13' W 074°15'5 9.6
2017-Dec-14 13:00N 45°14' W 074°08'4 7.9
2017-Dec-14 12:30N 45°13' W 074°03'4 7.4
2017-Dec-14 12:00N 45°15' W 073°58'4 7.1
2017-Dec-14 11:30N 45°18' W 073°56'0 0.3
2017-Dec-14 11:01N 45°18' W 073°56'0 0.9
2017-Dec-14 10:31N 45°19' W 073°55'0 0.8
2017-Dec-14 10:01N 45°19' W 073°55'0 0.8
2017-Dec-14 09:31N 45°19' W 073°55'0 0.0
2017-Dec-14 09:01N 45°19' W 073°55'1 1.1
2017-Dec-14 08:30N 45°20' W 073°55'1 3.0
2017-Dec-14 08:00N 45°21' W 073°53'4 8.3
2017-Dec-14 07:30N 45°23' W 073°48'4 8.0
2017-Dec-14 07:00N 45°25' W 073°43'3 5.3
2017-Dec-14 06:30N 45°24' W 073°39'3 6.3
2017-Dec-14 06:01N 45°24' W 073°35'1 1.1
2017-Dec-14 05:31N 45°24' W 073°34'0 0.8
2017-Dec-14 05:00N 45°24' W 073°33'1 1.2
2017-Dec-14 04:31N 45°24' W 073°34'1 1.2
2017-Dec-14 04:01N 45°24' W 073°35'1 1.5
2017-Dec-14 03:30N 45°24' W 073°36'0 0.0
2017-Dec-14 03:00N 45°24' W 073°36'0 0.0
2017-Dec-14 02:30N 45°24' W 073°36'0 0.0
2017-Dec-14 02:00N 45°24' W 073°36'0 0.0
2017-Dec-14 01:30N 45°24' W 073°36'0 0.0
2017-Dec-14 01:00N 45°24' W 073°36'0 0.0
2017-Dec-14 00:30N 45°24' W 073°36'0 0.0
2017-Dec-14 00:00N 45°24' W 073°36'0 0.0
2017-Dec-13 23:30N 45°24' W 073°36'0 0.0
2017-Dec-13 23:00N 45°24' W 073°36'0 0.0
2017-Dec-13 22:30N 45°24' W 073°36'0 0.0
2017-Dec-13 22:00N 45°24' W 073°36'0 0.0
2017-Dec-13 21:30N 45°24' W 073°36'0 0.0
2017-Dec-13 21:00N 45°24' W 073°36'0 0.0
2017-Dec-13 20:30N 45°24' W 073°36'0 0.0
2017-Dec-13 20:00N 45°24' W 073°36'0 0.0
2017-Dec-13 19:30N 45°24' W 073°36'0 0.0
2017-Dec-13 19:00N 45°24' W 073°36'0 0.0
2017-Dec-13 18:30N 45°24' W 073°36'0 0.0
2017-Dec-13 18:00N 45°24' W 073°36'0 0.0
2017-Dec-13 17:30N 45°24' W 073°36'0 0.0
2017-Dec-13 17:00N 45°24' W 073°36'0 0.0
2017-Dec-13 16:30N 45°24' W 073°36'0 0.0
2017-Dec-13 16:00N 45°24' W 073°36'0 0.0
2017-Dec-13 15:30N 45°24' W 073°36'0 0.0
2017-Dec-13 15:00N 45°24' W 073°36'0 0.0
2017-Dec-13 14:30N 45°24' W 073°36'0 0.0
2017-Dec-13 14:00N 45°24' W 073°36'0 0.0
2017-Dec-13 13:30N 45°24' W 073°36'0 0.0
2017-Dec-13 13:00N 45°24' W 073°36'0 0.0
2017-Dec-13 12:30N 45°24' W 073°36'0 0.0
2017-Dec-13 12:00N 45°24' W 073°36'0 0.0
2017-Dec-13 11:30N 45°24' W 073°36'0 0.0
2017-Dec-13 11:00N 45°24' W 073°36'0 0.0
2017-Dec-13 10:30N 45°24' W 073°36'0 0.0
2017-Dec-13 10:00N 45°24' W 073°36'0 0.0
2017-Dec-13 09:30N 45°24' W 073°36'0 0.0
2017-Dec-13 09:00N 45°24' W 073°36'0 0.0
2017-Dec-13 08:30N 45°24' W 073°36'0 0.0
2017-Dec-13 08:00N 45°24' W 073°36'1 1.4
2017-Dec-13 07:30N 45°24' W 073°37'1 2.8
2017-Dec-13 07:00N 45°24' W 073°39'2 4.9
2017-Dec-13 06:30N 45°25' W 073°42'4 7.1
2017-Dec-13 06:00N 45°24' W 073°47'3 6.6
2017-Dec-13 05:30N 45°22' W 073°50'3 6.5
2017-Dec-13 05:00N 45°20' W 073°54'1 2.0
2017-Dec-13 04:31N 45°19' W 073°55'0 0.1
2017-Dec-13 04:01N 45°19' W 073°55'0 0.6
2017-Dec-13 03:31N 45°19' W 073°55'1 1.1
2017-Dec-13 03:01N 45°18' W 073°56'1 1.1
2017-Dec-13 02:30N 45°18' W 073°56'2 4.3
2017-Dec-13 02:00N 45°16' W 073°57'4 8.6
2017-Dec-13 01:30N 45°13' W 074°02'510.2
2017-Dec-13 01:00N 45°14' W 074°10'323 7.5
2017-Dec-11 06:00N 42°18' W 080°24'   310 / 25990.0 2.2 1.0

Dump ship's entire track history